Portada
METAR-TAF:

METAR-TAF

Aeroports :

Jefferson City Memorial Airport

Jefferson City, Missouri, Estats Units d'Amèrica

latitud: 38-35-40N, longitud: 092-09-21W, altitud: 167 m

Observació

L'informe es va fer fa 24 minuts, a les 23:53 UTC
Vent 4 kt del Est/Sud-Est
Temperatura 19°C
Humitat 56%
Pressió 1024 hPa
Visibilitat: 16.1 km
Cel clar

METAR: KJEF 202353Z 12004KT 10SM CLR 19/10 A3025 RMK AO2 SLP235 T01940100 10233 20189 55001

Hora: 19:17 (00:17 UTC)


TAF: manca

Observacions i pronòstics meteorològics de més de 4000 aeroports (METAR i TAF).

Les estacions disponibles són els punts grocs i vermells al mapa.

Posi el ratolí al punt desitjat per veure el nom de l'estació.

Feu clic per veure les observacions i els pronòstics meteorològics.

Per canviar el mapa: feu clic els botons verds amb una creu de color negre per apropar; al botó verd amb un guió per allunyar la imatge; o en les fletxes verdes per a mapes adjacents.


METAR-TAF: